createdAt,value
2022-09-06T00:00:38.289Z,71.51
2022-09-06T00:01:43.558Z,71.85
2022-09-06T00:02:47.703Z,71.78
2022-09-06T00:03:51.924Z,72.05
2022-09-06T00:04:56.017Z,72.50
2022-09-06T00:06:00.039Z,72.15
2022-09-06T00:07:04.135Z,72.07
2022-09-06T00:08:09.688Z,72.07
2022-09-06T00:09:16.334Z,72.20
2022-09-06T00:10:22.091Z,72.15
2022-09-06T00:11:26.191Z,72.56
2022-09-06T00:12:32.504Z,72.56
2022-09-06T00:13:36.694Z,72.67
2022-09-06T00:14:40.781Z,72.73
2022-09-06T00:15:44.878Z,72.48
2022-09-06T00:16:49.239Z,72.63
2022-09-06T00:17:55.742Z,72.72
2022-09-06T00:18:59.387Z,72.40
2022-09-06T00:20:04.681Z,72.40
2022-09-06T00:21:14.213Z,72.54
2022-09-06T00:22:19.910Z,73.11
2022-09-06T00:23:24.015Z,72.96
2022-09-06T00:24:28.119Z,72.52
2022-09-06T00:25:33.496Z,72.52
2022-09-06T00:26:37.428Z,72.37
2022-09-06T00:27:41.362Z,72.71
2022-09-06T00:28:47.385Z,72.80
2022-09-06T00:29:51.419Z,72.80
2022-09-06T00:30:57.186Z,72.63
2022-09-06T00:32:03.037Z,72.90
2022-09-06T00:33:11.640Z,72.87
2022-09-06T00:34:14.804Z,72.98
2022-09-06T00:35:19.417Z,72.59
2022-09-06T00:36:24.212Z,72.59
2022-09-06T00:37:28.290Z,73.10
2022-09-06T00:38:32.571Z,73.07
2022-09-06T00:39:38.196Z,72.90
2022-09-06T00:40:42.358Z,73.28
2022-09-06T00:41:48.101Z,72.94
2022-09-06T00:42:52.189Z,73.05
2022-09-06T00:43:56.209Z,73.23
2022-09-06T00:45:02.068Z,72.80
2022-09-06T00:46:08.334Z,72.95
2022-09-06T00:47:12.438Z,72.95
2022-09-06T00:48:20.130Z,73.15
2022-09-06T00:49:28.457Z,73.53
2022-09-06T00:50:32.853Z,73.53
2022-09-06T00:51:38.275Z,73.29
2022-09-06T00:52:44.160Z,73.29
2022-09-06T00:53:48.247Z,72.99
2022-09-06T00:54:53.270Z,72.63
2022-09-06T00:55:57.462Z,72.63
2022-09-06T00:57:04.283Z,72.59
2022-09-06T00:58:08.366Z,72.83
2022-09-06T00:59:12.505Z,72.67
2022-09-06T01:00:20.768Z,72.69
2022-09-06T01:01:24.933Z,72.71
2022-09-06T01:02:29.393Z,72.66
2022-09-06T01:03:34.547Z,72.85
2022-09-06T01:04:41.839Z,72.76
2022-09-06T01:05:56.136Z,72.76
2022-09-06T01:07:28.520Z,72.94
2022-09-06T01:08:49.211Z,72.75
2022-09-06T01:10:19.924Z,72.75
2022-09-06T01:11:49.158Z,72.68
2022-09-06T01:13:00.320Z,72.43
2022-09-06T01:14:23.996Z,72.83
2022-09-06T01:15:45.746Z,72.64
2022-09-06T01:16:58.374Z,72.96
2022-09-06T01:18:13.216Z,73.14
2022-09-06T01:19:35.232Z,72.88
2022-09-06T01:20:55.586Z,72.88
2022-09-06T01:22:10.772Z,73.37
2022-09-06T01:23:17.769Z,73.63
2022-09-06T01:24:39.261Z,73.52
2022-09-06T01:26:06.981Z,73.52
2022-09-06T01:27:36.407Z,73.23
2022-09-06T01:28:47.583Z,73.45
2022-09-06T01:29:54.609Z,73.31
2022-09-06T01:31:28.628Z,73.79
2022-09-06T01:32:44.232Z,73.58
2022-09-06T01:34:07.537Z,73.59
2022-09-06T01:35:20.348Z,73.88
2022-09-06T01:36:27.958Z,73.51
2022-09-06T01:37:34.099Z,73.88
2022-09-06T01:38:38.198Z,74.04
2022-09-06T01:39:42.830Z,74.04
2022-09-06T01:40:51.336Z,74.28
2022-09-06T01:42:01.004Z,74.28
2022-09-06T01:43:11.106Z,74.15
2022-09-06T01:44:17.134Z,74.15
2022-09-06T01:45:46.303Z,74.40
2022-09-06T01:47:11.707Z,74.40
2022-09-06T01:48:38.067Z,74.26
2022-09-06T01:49:56.886Z,74.26
2022-09-06T01:51:12.796Z,74.28
2022-09-06T01:52:22.758Z,74.28
2022-09-06T01:53:51.295Z,73.88
2022-09-06T01:55:10.117Z,74.47
2022-09-06T01:56:33.836Z,73.87
2022-09-06T01:57:52.660Z,74.32
2022-09-06T01:59:05.475Z,74.05
2022-09-06T02:00:15.062Z,74.33
2022-09-06T02:01:27.892Z,74.45
2022-09-06T02:02:52.740Z,74.45
2022-09-06T02:04:22.153Z,74.15
2022-09-06T02:05:55.292Z,74.12
2022-09-06T02:07:02.452Z,74.12
2022-09-06T02:08:21.497Z,74.25
2022-09-06T02:09:35.628Z,74.25
2022-09-06T02:10:45.213Z,74.10
2022-09-06T02:11:52.227Z,74.41
2022-09-06T02:12:59.122Z,74.41
2022-09-06T02:14:06.103Z,74.38
2022-09-06T02:15:16.038Z,74.15
2022-09-06T02:16:23.691Z,74.70
2022-09-06T02:17:34.986Z,74.68
2022-09-06T02:18:44.477Z,74.11
2022-09-06T02:20:11.158Z,74.09
2022-09-06T02:21:24.967Z,74.09
2022-09-06T02:22:31.828Z,74.38
2022-09-06T02:23:40.078Z,74.46
2022-09-06T02:24:47.196Z,74.65
2022-09-06T02:26:03.300Z,74.65
2022-09-06T02:27:08.073Z,74.51
2022-09-06T02:28:16.391Z,74.51
2022-09-06T02:29:22.109Z,74.64
2022-09-06T02:30:26.743Z,74.64
2022-09-06T02:31:33.740Z,74.93
2022-09-06T02:32:44.214Z,74.71
2022-09-06T02:33:48.728Z,74.93
2022-09-06T02:34:55.633Z,74.97
2022-09-06T02:36:05.116Z,74.69
2022-09-06T02:37:10.731Z,74.77
2022-09-06T02:38:15.626Z,74.63
2022-09-06T02:39:19.712Z,74.88
2022-09-06T02:40:24.612Z,74.90
2022-09-06T02:41:33.623Z,74.90
2022-09-06T02:42:36.946Z,75.01
2022-09-06T02:43:43.033Z,74.99
2022-09-06T02:44:47.101Z,75.07
2022-09-06T02:45:52.689Z,74.73
2022-09-06T02:46:58.096Z,75.17
2022-09-06T02:48:03.835Z,75.28
2022-09-06T02:49:09.430Z,75.23
2022-09-06T02:50:14.135Z,75.05
2022-09-06T02:51:18.544Z,75.05
2022-09-06T02:52:23.919Z,75.21
2022-09-06T02:53:27.923Z,75.21
2022-09-06T02:54:35.722Z,75.18
2022-09-06T02:55:40.322Z,74.96
2022-09-06T02:56:47.051Z,75.23
2022-09-06T02:57:50.462Z,75.19
2022-09-06T02:58:54.580Z,75.20
2022-09-06T02:59:58.622Z,75.25
2022-09-06T03:01:03.071Z,75.36
2022-09-06T03:02:08.906Z,75.36
2022-09-06T03:03:12.979Z,75.16
2022-09-06T03:04:16.994Z,74.99
2022-09-06T03:05:21.037Z,74.98
2022-09-06T03:06:25.563Z,75.20
2022-09-06T03:07:29.641Z,75.20
2022-09-06T03:08:33.743Z,75.17
2022-09-06T03:09:39.291Z,75.12
2022-09-06T03:10:51.057Z,75.25
2022-09-06T03:11:55.086Z,75.24
2022-09-06T03:12:59.175Z,74.89
2022-09-06T03:14:04.733Z,74.96
2022-09-06T03:15:09.397Z,75.19
2022-09-06T03:16:14.687Z,75.32
2022-09-06T03:17:18.657Z,74.85
2022-09-06T03:18:23.753Z,75.02
2022-09-06T03:19:29.320Z,74.96
2022-09-06T03:20:36.994Z,75.12
2022-09-06T03:21:40.724Z,75.21
2022-09-06T03:22:45.943Z,74.79
2022-09-06T03:23:50.262Z,75.04
2022-09-06T03:24:54.227Z,75.14
2022-09-06T03:25:58.351Z,75.14
2022-09-06T03:27:02.515Z,74.97
2022-09-06T03:28:08.512Z,74.83
2022-09-06T03:29:12.247Z,74.26
2022-09-06T03:30:17.351Z,73.57
2022-09-06T03:31:21.444Z,73.57
2022-09-06T03:32:25.526Z,71.57
2022-09-06T03:33:29.578Z,71.08
2022-09-06T03:34:36.490Z,71.08
2022-09-06T03:35:40.740Z,69.99
2022-09-06T03:36:44.821Z,68.92
2022-09-06T03:37:48.765Z,68.07
2022-09-06T03:38:52.792Z,67.48
2022-09-06T03:39:57.126Z,67.48
2022-09-06T03:41:01.201Z,66.28
2022-09-06T03:42:07.539Z,66.28
2022-09-06T03:43:11.496Z,64.77
2022-09-06T03:44:15.590Z,64.24
2022-09-06T03:45:19.626Z,63.58
2022-09-06T03:46:23.908Z,62.63
2022-09-06T03:47:28.067Z,62.05
2022-09-06T03:48:32.109Z,62.05
2022-09-06T03:49:36.164Z,61.09
2022-09-06T03:50:41.741Z,60.55
2022-09-06T03:51:45.773Z,60.01
2022-09-06T03:52:49.723Z,60.01
2022-09-06T03:53:53.744Z,59.36
2022-09-06T03:54:57.760Z,58.35
2022-09-06T03:56:01.882Z,57.74
2022-09-06T03:57:05.880Z,57.99
2022-09-06T03:58:12.922Z,57.99
2022-09-06T03:59:17.152Z,57.86
2022-09-06T04:00:22.748Z,58.39
2022-09-06T04:01:27.596Z,58.39
2022-09-06T04:02:31.847Z,58.46
2022-09-06T04:03:36.962Z,59.83
2022-09-06T04:04:41.083Z,60.31
2022-09-06T04:05:47.857Z,59.72
2022-09-06T04:06:51.885Z,59.72
2022-09-06T04:07:55.923Z,59.41
2022-09-06T04:09:01.360Z,59.58
2022-09-06T04:10:05.905Z,60.32
2022-09-06T04:11:10.002Z,61.69
2022-09-06T04:12:14.026Z,61.66
2022-09-06T04:13:18.136Z,61.50
2022-09-06T04:14:22.158Z,62.32
2022-09-06T04:15:26.284Z,62.26
2022-09-06T04:16:30.474Z,62.81
2022-09-06T04:17:38.904Z,62.92
2022-09-06T04:18:43.067Z,62.45
2022-09-06T04:19:47.308Z,60.81
2022-09-06T04:20:53.642Z,59.93
2022-09-06T04:21:57.593Z,59.07
2022-09-06T04:23:01.536Z,57.96
2022-09-06T04:24:05.567Z,56.89
2022-09-06T04:25:10.332Z,56.48
2022-09-06T04:26:15.065Z,56.48
2022-09-06T04:27:19.010Z,55.42
2022-09-06T04:28:24.012Z,54.64
2022-09-06T04:29:29.622Z,54.57
2022-09-06T04:30:33.778Z,54.17
2022-09-06T04:31:39.555Z,54.35
2022-09-06T04:32:43.608Z,54.86
2022-09-06T04:33:49.039Z,55.99
2022-09-06T04:34:53.068Z,56.57
2022-09-06T04:35:59.436Z,56.57
2022-09-06T04:37:03.523Z,57.84
2022-09-06T04:38:07.546Z,57.84
2022-09-06T04:39:11.512Z,58.34
2022-09-06T04:40:17.157Z,59.83
2022-09-06T04:41:21.212Z,60.25
2022-09-06T04:42:25.341Z,61.28
2022-09-06T04:43:29.435Z,61.78
2022-09-06T04:44:33.386Z,61.56
2022-09-06T04:45:37.487Z,61.13
2022-09-06T04:46:42.779Z,60.19
2022-09-06T04:47:46.930Z,59.30
2022-09-06T04:48:51.342Z,58.91
2022-09-06T04:49:55.309Z,58.91
2022-09-06T04:50:59.389Z,57.58
2022-09-06T04:52:03.605Z,56.80
2022-09-06T04:53:07.835Z,56.64
2022-09-06T04:54:13.293Z,56.92
2022-09-06T04:55:17.254Z,56.92
2022-09-06T04:56:27.179Z,56.93
2022-09-06T04:57:32.426Z,57.26
2022-09-06T04:58:36.403Z,56.34
2022-09-06T04:59:40.511Z,57.25
2022-09-06T05:00:45.018Z,57.37
2022-09-06T05:01:49.228Z,57.37
2022-09-06T05:02:54.620Z,57.48
2022-09-06T05:03:58.772Z,58.29
2022-09-06T05:05:02.789Z,58.17
2022-09-06T05:06:09.723Z,58.87
2022-09-06T05:07:15.258Z,58.87
2022-09-06T05:08:22.125Z,60.05
2022-09-06T05:09:24.897Z,60.05
2022-09-06T05:10:29.198Z,60.13
2022-09-06T05:11:33.890Z,60.73
2022-09-06T05:12:42.071Z,60.24
2022-09-06T05:13:48.106Z,60.97
2022-09-06T05:14:53.690Z,61.66
2022-09-06T05:16:02.431Z,61.56
2022-09-06T05:17:06.473Z,62.09
2022-09-06T05:18:15.492Z,62.36
2022-09-06T05:19:16.769Z,62.36
2022-09-06T05:20:24.126Z,62.72
2022-09-06T05:21:28.415Z,62.22
2022-09-06T05:22:32.386Z,62.22
2022-09-06T05:23:37.075Z,63.07
2022-09-06T05:24:41.091Z,63.53
2022-09-06T05:25:45.136Z,63.53
2022-09-06T05:26:49.256Z,63.83
2022-09-06T05:27:53.282Z,63.26
2022-09-06T05:28:57.247Z,63.38
2022-09-06T05:30:02.582Z,62.15
2022-09-06T05:31:13.273Z,62.78
2022-09-06T05:32:17.320Z,62.15
2022-09-06T05:33:23.017Z,62.18
2022-09-06T05:34:26.978Z,62.55
2022-09-06T05:35:37.606Z,62.55
2022-09-06T05:36:40.454Z,62.59
2022-09-06T05:37:44.536Z,62.59
2022-09-06T05:38:48.559Z,63.32
2022-09-06T05:39:52.563Z,63.31
2022-09-06T05:40:56.805Z,63.47
2022-09-06T05:42:00.752Z,63.02
2022-09-06T05:43:04.835Z,63.02
2022-09-06T05:44:08.881Z,62.91
2022-09-06T05:45:12.762Z,62.91
2022-09-06T05:46:18.487Z,63.89
2022-09-06T05:47:22.665Z,63.90
2022-09-06T05:48:26.726Z,64.20
2022-09-06T05:49:34.103Z,64.14
2022-09-06T05:50:37.833Z,63.82
2022-09-06T05:51:41.955Z,64.53
2022-09-06T05:52:46.022Z,64.58
2022-09-06T05:53:51.713Z,64.58
2022-09-06T05:54:55.782Z,65.09
2022-09-06T05:55:59.812Z,65.29
2022-09-06T05:57:08.078Z,65.51
2022-09-06T05:58:12.050Z,65.51
2022-09-06T05:59:16.088Z,65.98
2022-09-06T06:00:21.684Z,65.79
2022-09-06T06:01:27.969Z,66.01
2022-09-06T06:02:32.106Z,66.21
2022-09-06T06:03:39.083Z,66.21
2022-09-06T06:04:43.421Z,66.15
2022-09-06T06:05:48.054Z,66.66
2022-09-06T06:06:52.190Z,66.98
2022-09-06T06:07:56.175Z,66.98
2022-09-06T06:09:01.234Z,67.60
2022-09-06T06:10:05.780Z,66.58
2022-09-06T06:11:11.295Z,66.56
2022-09-06T06:12:15.395Z,66.56
2022-09-06T06:13:19.393Z,66.32
2022-09-06T06:14:26.472Z,67.23
2022-09-06T06:15:31.179Z,67.32
2022-09-06T06:16:46.060Z,67.80
2022-09-06T06:17:40.792Z,67.76
2022-09-06T06:18:48.739Z,67.63
2022-09-06T06:19:50.552Z,68.21
2022-09-06T06:21:10.580Z,68.30
2022-09-06T06:22:14.638Z,68.52
2022-09-06T06:23:18.730Z,68.29
2022-09-06T06:24:23.062Z,68.78
2022-09-06T06:25:27.180Z,68.42
2022-09-06T06:26:39.661Z,68.42
2022-09-06T06:27:45.279Z,67.97
2022-09-06T06:28:51.040Z,67.73
2022-09-06T06:29:55.026Z,67.73
2022-09-06T06:30:59.154Z,67.39
2022-09-06T06:32:03.410Z,67.39
2022-09-06T06:33:09.045Z,67.24
2022-09-06T06:34:13.161Z,67.15
2022-09-06T06:35:18.628Z,66.86
2022-09-06T06:36:25.623Z,67.28
2022-09-06T06:37:29.568Z,66.06
2022-09-06T06:38:41.279Z,66.37
2022-09-06T06:39:45.375Z,65.93
2022-09-06T06:40:49.634Z,65.93
2022-09-06T06:41:55.212Z,65.82
2022-09-06T06:42:59.174Z,65.69
2022-09-06T06:44:05.300Z,65.77
2022-09-06T06:45:09.676Z,64.99
2022-09-06T06:46:17.930Z,65.06
2022-09-06T06:47:22.062Z,64.41
2022-09-06T06:48:26.090Z,62.90
2022-09-06T06:49:33.283Z,62.90
2022-09-06T06:50:37.376Z,62.80
2022-09-06T06:51:41.426Z,61.87
2022-09-06T06:52:45.445Z,62.73
2022-09-06T06:53:50.025Z,61.80
2022-09-06T06:54:54.066Z,60.12
2022-09-06T06:55:58.024Z,60.12
2022-09-06T06:57:03.309Z,58.89
2022-09-06T06:58:08.794Z,58.89
2022-09-06T06:59:12.886Z,59.08
2022-09-06T07:00:18.480Z,58.22
2022-09-06T07:01:24.236Z,58.32
2022-09-06T07:02:31.261Z,57.32
2022-09-06T07:03:34.067Z,56.83
2022-09-06T07:04:38.163Z,56.37
2022-09-06T07:07:59.365Z,55.20
2022-09-06T07:09:03.411Z,54.90
2022-09-06T07:11:15.748Z,54.35
2022-09-06T07:12:19.739Z,54.24
2022-09-06T07:13:23.932Z,54.24
2022-09-06T07:14:27.973Z,54.03
2022-09-06T07:15:31.934Z,54.55
2022-09-06T07:16:36.114Z,54.55
2022-09-06T07:17:40.247Z,54.64
2022-09-06T07:18:44.574Z,54.64
2022-09-06T07:22:05.208Z,51.97
2022-09-06T07:24:14.194Z,51.74
2022-09-06T07:25:21.407Z,52.27
2022-09-06T07:26:26.661Z,51.84
2022-09-06T07:28:36.556Z,50.35
2022-09-06T07:29:40.598Z,50.65
2022-09-06T07:30:44.725Z,50.92
2022-09-06T07:32:54.656Z,50.30
2022-09-06T07:33:59.148Z,50.55
2022-09-06T07:35:03.128Z,50.23
2022-09-06T07:36:09.038Z,50.16
2022-09-06T07:37:13.087Z,50.16
2022-09-06T07:38:17.114Z,50.14
2022-09-06T07:39:28.965Z,49.50
2022-09-06T07:43:00.506Z,50.51
2022-09-06T07:44:06.096Z,50.40
2022-09-06T07:45:10.482Z,50.20
2022-09-06T07:46:17.655Z,49.73
2022-09-06T07:48:30.430Z,49.28
2022-09-06T07:49:35.765Z,49.32
2022-09-06T07:50:48.306Z,49.27
2022-09-06T07:51:45.517Z,48.80
2022-09-06T07:54:12.866Z,49.49
2022-09-06T07:55:01.595Z,50.54
2022-09-06T07:56:08.564Z,50.27
2022-09-06T07:57:12.519Z,50.83
2022-09-06T07:58:16.557Z,50.83
2022-09-06T07:59:20.679Z,50.48
2022-09-06T08:00:26.344Z,50.97
2022-09-06T08:01:37.009Z,51.33
2022-09-06T08:02:41.146Z,51.14
2022-09-06T08:03:46.069Z,50.76
2022-09-06T08:04:51.733Z,50.76
2022-09-06T08:06:11.472Z,51.76
2022-09-06T08:09:13.226Z,50.92
2022-09-06T08:10:20.771Z,50.96
2022-09-06T08:11:27.371Z,50.43
2022-09-06T08:12:31.497Z,50.43
2022-09-06T08:13:38.637Z,50.43
2022-09-06T08:14:42.948Z,49.89
2022-09-06T08:15:47.005Z,49.17
2022-09-06T08:16:51.119Z,47.91
2022-09-06T08:17:55.208Z,47.91
2022-09-06T08:19:01.521Z,48.50
2022-09-06T08:20:07.521Z,48.50
2022-09-06T08:21:16.109Z,48.06
2022-09-06T08:22:19.861Z,48.18
2022-09-06T08:23:25.404Z,46.40
2022-09-06T08:24:29.556Z,47.77
2022-09-06T08:25:33.607Z,47.77
2022-09-06T08:26:38.916Z,47.28
2022-09-06T08:27:42.926Z,46.75
2022-09-06T08:28:47.268Z,46.34
2022-09-06T08:29:51.207Z,44.23
2022-09-06T08:30:55.711Z,44.73
2022-09-06T08:31:59.703Z,43.98
2022-09-06T08:33:03.707Z,44.27
2022-09-06T08:34:08.192Z,43.69
2022-09-06T08:35:12.254Z,43.66
2022-09-06T08:36:16.813Z,42.52
2022-09-06T08:37:24.826Z,43.83
2022-09-06T08:38:27.722Z,43.24
2022-09-06T08:39:31.633Z,43.24
2022-09-06T08:40:38.353Z,42.59
2022-09-06T08:41:47.206Z,43.74
2022-09-06T08:42:51.811Z,43.74
2022-09-06T08:45:08.290Z,42.81
2022-09-06T08:46:15.108Z,43.14
2022-09-06T08:47:22.104Z,43.57
2022-09-06T08:48:29.104Z,43.53
2022-09-06T08:49:36.145Z,43.53
2022-09-06T08:50:43.116Z,43.70
2022-09-06T08:52:08.995Z,43.00
2022-09-06T08:53:17.712Z,43.00
2022-09-06T08:54:42.436Z,43.12
2022-09-06T08:59:04.349Z,42.47
2022-09-06T09:02:00.236Z,42.34
2022-09-06T09:03:16.660Z,42.95
2022-09-06T09:05:58.895Z,42.39
2022-09-06T09:07:07.484Z,42.98
2022-09-06T09:08:41.381Z,42.61
2022-09-06T09:09:47.488Z,42.96
2022-09-06T09:10:59.281Z,42.96
2022-09-06T09:12:05.463Z,42.62
2022-09-06T09:13:13.943Z,42.62
2022-09-06T09:14:29.996Z,42.99
2022-09-06T09:15:40.236Z,43.04
2022-09-06T09:16:42.655Z,43.04
2022-09-06T09:17:49.388Z,43.00
2022-09-06T09:18:56.247Z,43.00
2022-09-06T09:20:04.063Z,44.11
2022-09-06T09:21:09.288Z,43.94
2022-09-06T09:22:16.287Z,43.94
2022-09-06T09:23:22.163Z,44.47
2022-09-06T09:24:26.275Z,44.91
2022-09-06T09:25:34.726Z,45.47
2022-09-06T09:26:56.604Z,45.47
2022-09-06T09:28:01.629Z,45.10
2022-09-06T09:29:11.561Z,44.92
2022-09-06T09:31:24.637Z,45.16
2022-09-06T09:32:40.219Z,44.85
2022-09-06T09:33:44.360Z,45.47
2022-09-06T09:34:52.568Z,45.47
2022-09-06T09:35:59.339Z,45.06
2022-09-06T09:38:31.522Z,43.35
2022-09-06T09:39:40.626Z,43.39
2022-09-06T09:41:04.207Z,43.39
2022-09-06T09:50:28.920Z,42.68
2022-09-06T09:51:35.828Z,42.30
2022-09-06T09:52:45.491Z,42.47
2022-09-06T09:53:57.003Z,43.00
2022-09-06T09:55:06.817Z,42.30
2022-09-06T09:56:21.419Z,42.92
2022-09-06T09:57:24.461Z,43.14
2022-09-06T09:58:36.883Z,43.14
2022-09-06T09:59:55.744Z,43.55
2022-09-06T10:01:19.085Z,42.57
2022-09-06T10:02:45.803Z,42.41
2022-09-06T10:05:07.234Z,42.92
2022-09-06T10:07:27.922Z,42.79
2022-09-06T10:08:35.692Z,42.79
2022-09-06T10:09:44.166Z,43.00
2022-09-06T10:10:54.109Z,42.32
2022-09-06T10:12:01.247Z,42.00
2022-09-06T10:13:24.265Z,42.56
2022-09-06T10:14:46.389Z,42.56
2022-09-06T10:15:53.170Z,42.30
2022-09-06T10:16:58.539Z,43.09
2022-09-06T10:18:05.034Z,43.09
2022-09-06T10:19:23.383Z,41.82
2022-09-06T10:20:33.780Z,41.26
2022-09-06T10:21:37.937Z,41.83
2022-09-06T10:22:53.673Z,41.83
2022-09-06T10:25:15.155Z,41.58
2022-09-06T10:26:23.749Z,40.49
2022-09-06T10:27:29.567Z,39.96
2022-09-06T10:28:36.078Z,39.96
2022-09-06T10:29:43.061Z,41.45
2022-09-06T10:30:50.204Z,41.51
2022-09-06T10:32:07.422Z,41.58
2022-09-06T10:33:17.208Z,41.64
2022-09-06T10:34:51.411Z,41.96
2022-09-06T10:35:57.888Z,42.39
2022-09-06T10:37:17.075Z,42.58
2022-09-06T10:38:29.957Z,42.26
2022-09-06T10:39:45.979Z,42.93
2022-09-06T10:40:53.170Z,42.93
2022-09-06T10:42:06.328Z,42.11
2022-09-06T10:43:13.355Z,42.18
2022-09-06T10:44:40.806Z,42.29
2022-09-06T10:45:53.723Z,42.40
2022-09-06T10:47:13.920Z,41.80
2022-09-06T10:48:20.919Z,41.80
2022-09-06T10:49:26.544Z,40.74
2022-09-06T10:50:45.113Z,40.74
2022-09-06T10:52:00.927Z,41.00
2022-09-06T10:53:19.841Z,41.02
2022-09-06T10:54:27.367Z,40.87
2022-09-06T10:55:31.882Z,40.87
2022-09-06T10:56:56.748Z,40.42
2022-09-06T10:58:20.116Z,40.37
2022-09-06T10:59:39.888Z,40.37
2022-09-06T11:00:33.464Z,40.32
2022-09-06T11:01:49.223Z,40.39
2022-09-06T11:05:46.352Z,39.95
2022-09-06T11:06:53.771Z,40.12
2022-09-06T11:09:20.793Z,40.34
2022-09-06T11:10:50.061Z,40.03
2022-09-06T11:11:46.972Z,40.03
2022-09-06T11:12:59.554Z,40.26
2022-09-06T11:14:06.576Z,40.05
2022-09-06T11:15:13.525Z,40.74
2022-09-06T11:16:25.198Z,41.21
2022-09-06T11:17:47.353Z,41.16
2022-09-06T11:19:15.334Z,40.74
2022-09-06T11:20:34.849Z,40.74
2022-09-06T11:22:02.891Z,40.57
2022-09-06T11:23:31.865Z,40.45
2022-09-06T11:24:55.071Z,41.98
2022-09-06T11:26:19.989Z,41.98
2022-09-06T11:27:38.654Z,41.09
2022-09-06T11:28:48.303Z,40.70
2022-09-06T11:29:55.489Z,40.74
2022-09-06T11:31:00.367Z,40.74
2022-09-06T11:32:22.614Z,40.84
2022-09-06T11:33:28.943Z,41.13
2022-09-06T11:34:35.078Z,40.50
2022-09-06T11:35:41.821Z,40.50
2022-09-06T11:36:51.009Z,41.53
2022-09-06T11:38:16.328Z,41.67
2022-09-06T11:40:41.474Z,42.84
2022-09-06T11:41:45.676Z,43.29
2022-09-06T11:42:52.679Z,43.08
2022-09-06T11:43:57.011Z,43.44
2022-09-06T11:45:04.038Z,43.12
2022-09-06T11:46:08.554Z,43.10
2022-09-06T11:47:15.576Z,43.28
2022-09-06T11:48:28.750Z,43.28
2022-09-06T11:49:35.572Z,43.83
2022-09-06T11:50:57.664Z,43.61
2022-09-06T11:52:05.370Z,43.61
2022-09-06T11:53:19.593Z,43.96
2022-09-06T11:54:40.721Z,44.23
2022-09-06T11:55:50.341Z,44.39
2022-09-06T11:57:00.370Z,44.76
2022-09-06T11:58:11.085Z,44.50
2022-09-06T11:59:26.061Z,43.84
2022-09-06T12:00:35.324Z,43.59
2022-09-06T12:01:40.248Z,43.49
2022-09-06T12:02:44.301Z,43.69
2022-09-06T12:04:06.175Z,43.09
2022-09-06T12:05:06.145Z,43.13
2022-09-06T12:06:41.338Z,43.13
2022-09-06T12:08:17.135Z,43.34
2022-09-06T12:09:32.454Z,42.08
2022-09-06T12:10:54.017Z,42.36
2022-09-06T12:11:59.438Z,42.54
2022-09-06T12:13:06.540Z,42.19
2022-09-06T12:14:28.700Z,42.74
2022-09-06T12:15:55.380Z,43.29
2022-09-06T12:17:05.329Z,43.29
2022-09-06T12:18:09.440Z,43.64
2022-09-06T12:19:32.859Z,43.22
2022-09-06T12:20:51.823Z,44.15
2022-09-06T12:21:57.492Z,42.98
2022-09-06T12:23:01.582Z,43.71
2022-09-06T12:24:08.150Z,43.34
2022-09-06T12:25:37.767Z,43.44
2022-09-06T12:26:56.169Z,44.04
2022-09-06T12:28:03.090Z,43.64
2022-09-06T12:29:11.081Z,43.99
2022-09-06T12:30:19.041Z,44.04
2022-09-06T12:31:47.102Z,44.04
2022-09-06T12:32:53.822Z,43.64
2022-09-06T12:34:09.231Z,43.89
2022-09-06T12:36:32.045Z,44.64
2022-09-06T12:38:49.615Z,44.07
2022-09-06T12:39:08.536Z,44.07
2022-09-06T12:40:12.064Z,43.67
2022-09-06T12:41:16.307Z,43.63
2022-09-06T12:42:20.558Z,43.63
2022-09-06T12:43:25.282Z,44.80
2022-09-06T12:44:38.187Z,43.89
2022-09-06T12:45:46.831Z,44.42
2022-09-06T12:46:52.540Z,43.86
2022-09-06T12:48:11.864Z,43.86
2022-09-06T12:49:20.464Z,41.70
2022-09-06T12:50:26.559Z,42.35
2022-09-06T12:51:30.641Z,40.87
2022-09-06T12:52:34.820Z,40.67
2022-09-06T12:53:38.881Z,39.72
2022-09-06T12:54:45.884Z,39.85
2022-09-06T12:55:51.476Z,38.65
2022-09-06T12:56:58.604Z,38.94
2022-09-06T12:58:08.120Z,38.70
2022-09-06T12:59:20.487Z,38.70
2022-09-06T13:00:37.872Z,39.47
2022-09-06T13:01:46.514Z,39.37
2022-09-06T13:02:56.805Z,39.93
2022-09-06T13:04:06.818Z,39.85
2022-09-06T13:05:12.925Z,40.20
2022-09-06T13:06:26.649Z,40.09
2022-09-06T13:07:29.047Z,40.27
2022-09-06T13:08:39.035Z,40.68
2022-09-06T13:09:45.727Z,40.67
2022-09-06T13:10:50.028Z,40.72
2022-09-06T13:11:57.000Z,40.72
2022-09-06T13:13:01.137Z,41.28
2022-09-06T13:14:15.503Z,41.59
2022-09-06T13:15:32.018Z,42.03
2022-09-06T13:16:39.177Z,41.50
2022-09-06T13:17:43.274Z,40.61
2022-09-06T13:18:47.479Z,41.19
2022-09-06T13:19:51.708Z,41.19
2022-09-06T13:21:03.594Z,40.11
2022-09-06T13:22:09.889Z,40.76
2022-09-06T13:23:16.907Z,41.35
2022-09-06T13:24:26.441Z,41.45
2022-09-06T13:25:30.480Z,41.63
2022-09-06T13:26:37.227Z,41.63
2022-09-06T13:27:43.586Z,41.86
2022-09-06T13:28:47.653Z,42.28
2022-09-06T13:30:08.844Z,42.80
2022-09-06T13:31:21.392Z,42.32
2022-09-06T13:32:27.083Z,43.33
2022-09-06T13:33:31.635Z,43.05
2022-09-06T13:34:35.974Z,42.70
2022-09-06T13:35:40.026Z,42.70
2022-09-06T13:36:47.051Z,42.81
2022-09-06T13:37:51.236Z,42.81
2022-09-06T13:38:55.290Z,42.27
2022-09-06T13:39:59.590Z,42.84
2022-09-06T13:41:12.578Z,42.99
2022-09-06T13:42:26.730Z,43.74
2022-09-06T13:43:30.956Z,43.24
2022-09-06T13:44:37.819Z,42.92
2022-09-06T13:45:41.942Z,41.88
2022-09-06T13:46:49.159Z,41.62
2022-09-06T13:48:07.911Z,41.62
2022-09-06T13:49:00.639Z,42.53
2022-09-06T13:50:06.342Z,42.53
2022-09-06T13:51:10.660Z,42.17
2022-09-06T13:52:16.378Z,41.46
2022-09-06T13:53:20.914Z,41.46
2022-09-06T13:54:25.127Z,42.92
2022-09-06T13:55:31.413Z,42.92
2022-09-06T13:56:36.429Z,42.28
2022-09-06T13:57:43.051Z,42.66
2022-09-06T13:58:46.862Z,43.86
2022-09-06T13:59:51.028Z,43.14
2022-09-06T14:00:55.833Z,42.42
2022-09-06T14:02:08.031Z,42.53
2022-09-06T14:03:16.622Z,42.53
2022-09-06T14:04:21.399Z,41.83
2022-09-06T14:05:25.509Z,41.83
2022-09-06T14:06:34.724Z,42.00
2022-09-06T14:07:37.529Z,42.32
2022-09-06T14:09:05.921Z,41.90
2022-09-06T14:09:48.950Z,42.09
2022-09-06T14:10:55.123Z,42.09
2022-09-06T14:11:59.256Z,41.77
2022-09-06T14:13:03.235Z,42.52
2022-09-06T14:14:07.341Z,41.99
2022-09-06T14:15:11.398Z,42.04
2022-09-06T14:16:16.007Z,42.38
2022-09-06T14:17:20.508Z,42.85
2022-09-06T14:18:27.220Z,42.85
2022-09-06T14:19:30.218Z,42.49
2022-09-06T14:20:35.959Z,42.46
2022-09-06T14:21:41.686Z,42.17
2022-09-06T14:22:47.250Z,41.68
2022-09-06T14:23:52.060Z,41.67
2022-09-06T14:24:56.181Z,41.87
2022-09-06T14:26:02.897Z,41.49
2022-09-06T14:27:08.531Z,41.66
2022-09-06T14:28:14.135Z,42.02
2022-09-06T14:29:19.718Z,42.02
2022-09-06T14:30:24.036Z,42.15
2022-09-06T14:31:29.633Z,42.35
2022-09-06T14:32:33.839Z,42.74
2022-09-06T14:33:37.963Z,42.94
2022-09-06T14:34:42.026Z,42.32
2022-09-06T14:35:46.092Z,42.98
2022-09-06T14:36:50.650Z,42.51
2022-09-06T14:37:54.883Z,42.72
2022-09-06T14:39:00.558Z,41.63
2022-09-06T14:40:05.471Z,42.35
2022-09-06T14:41:10.391Z,41.95
2022-09-06T14:42:14.569Z,42.23
2022-09-06T14:43:20.549Z,42.91
2022-09-06T14:44:24.545Z,42.07
2022-09-06T14:45:28.598Z,42.46
2022-09-06T14:46:32.949Z,42.46
2022-09-06T14:47:38.737Z,42.37
2022-09-06T14:48:44.730Z,42.92
2022-09-06T14:49:52.641Z,43.81
2022-09-06T14:51:02.252Z,42.96
2022-09-06T14:52:04.786Z,42.96
2022-09-06T14:53:30.144Z,43.39
2022-09-06T14:54:16.201Z,43.67
2022-09-06T14:55:20.260Z,43.58
2022-09-06T14:56:26.263Z,43.58
2022-09-06T14:57:31.827Z,44.23
2022-09-06T14:58:39.101Z,43.91
2022-09-06T14:59:44.753Z,42.86
2022-09-06T15:00:48.732Z,42.86
2022-09-06T15:01:54.985Z,43.14
2022-09-06T15:03:00.448Z,43.14
2022-09-06T15:04:06.150Z,42.85
2022-09-06T15:05:11.809Z,42.89
2022-09-06T15:06:17.545Z,43.06
2022-09-06T15:07:22.142Z,43.06
2022-09-06T15:08:26.170Z,43.28
2022-09-06T15:09:30.191Z,43.08
2022-09-06T15:10:34.573Z,43.08
2022-09-06T15:11:45.678Z,43.19
2022-09-06T15:12:49.760Z,42.97
2022-09-06T15:13:53.794Z,43.30
2022-09-06T15:14:57.817Z,43.81
2022-09-06T15:16:03.359Z,43.65
2022-09-06T15:17:07.484Z,43.83
2022-09-06T15:18:12.992Z,43.96